createdAt,value
2018-09-04T00:02:04.628Z,15.20
2018-09-04T00:04:32.805Z,15.20
2018-09-04T00:07:00.969Z,15.20
2018-09-04T00:09:29.146Z,15.20
2018-09-04T00:11:57.324Z,15.20
2018-09-04T00:14:25.500Z,15.20
2018-09-04T00:16:53.676Z,15.20
2018-09-04T00:19:21.844Z,15.20
2018-09-04T00:21:50.038Z,15.20
2018-09-04T00:24:18.201Z,15.20
2018-09-04T00:26:46.356Z,15.20
2018-09-04T00:29:14.530Z,15.20
2018-09-04T00:31:42.693Z,15.20
2018-09-04T00:34:10.892Z,15.20
2018-09-04T00:36:39.048Z,15.20
2018-09-04T00:43:53.321Z,15.20
2018-09-04T00:46:21.538Z,15.10
2018-09-04T00:48:49.712Z,15.10
2018-09-04T00:51:17.880Z,15.10
2018-09-04T00:53:46.056Z,15.10
2018-09-04T00:56:14.251Z,15.10
2018-09-04T00:58:42.408Z,15.10
2018-09-04T01:01:10.581Z,15.10
2018-09-04T01:03:38.740Z,15.10
2018-09-04T01:06:06.928Z,15.10
2018-09-04T01:08:35.091Z,15.10
2018-09-04T01:11:03.279Z,15.10
2018-09-04T01:13:31.448Z,15.10
2018-09-04T01:15:59.612Z,15.10
2018-09-04T01:18:27.804Z,15.10
2018-09-04T01:20:56.053Z,15.10
2018-09-04T01:23:24.208Z,15.00
2018-09-04T01:25:52.384Z,15.10
2018-09-04T01:28:20.540Z,15.10
2018-09-04T01:30:48.733Z,15.10
2018-09-04T01:33:16.893Z,15.10
2018-09-04T01:35:45.066Z,15.10
2018-09-04T01:38:13.232Z,15.10
2018-09-04T01:40:41.458Z,15.10
2018-09-04T01:43:09.607Z,15.00
2018-09-04T01:45:37.782Z,15.00
2018-09-04T01:48:05.952Z,15.00
2018-09-04T01:50:34.124Z,15.10
2018-09-04T01:53:02.324Z,15.10
2018-09-04T01:55:30.509Z,15.10
2018-09-04T01:57:58.677Z,15.10
2018-09-04T02:00:27.172Z,15.10
2018-09-04T02:02:55.552Z,15.10
2018-09-04T02:05:23.778Z,15.00
2018-09-04T02:07:51.948Z,15.00
2018-09-04T02:10:21.204Z,15.00
2018-09-04T02:12:49.402Z,15.00
2018-09-04T02:15:17.596Z,15.00
2018-09-04T02:17:45.777Z,15.00
2018-09-04T02:20:13.976Z,15.00
2018-09-04T02:22:42.148Z,15.00
2018-09-04T02:25:10.385Z,15.00
2018-09-04T02:27:38.793Z,15.00
2018-09-04T02:30:07.004Z,15.00
2018-09-04T02:32:35.204Z,15.00
2018-09-04T02:35:03.404Z,15.00
2018-09-04T02:37:31.645Z,15.00
2018-09-04T02:39:59.841Z,15.00
2018-09-04T02:42:28.011Z,14.90
2018-09-04T02:44:56.179Z,15.00
2018-09-04T02:47:24.344Z,15.00
2018-09-04T02:49:52.538Z,15.00
2018-09-04T02:52:20.709Z,15.00
2018-09-04T02:54:48.936Z,15.00
2018-09-04T02:57:17.105Z,15.00
2018-09-04T02:59:45.278Z,15.00
2018-09-04T03:02:13.444Z,15.00
2018-09-04T03:04:41.616Z,15.00
2018-09-04T03:07:09.778Z,15.10
2018-09-04T03:09:37.949Z,15.00
2018-09-04T03:12:06.164Z,15.00
2018-09-04T03:14:34.298Z,15.00
2018-09-04T03:17:02.527Z,15.00
2018-09-04T03:19:30.681Z,15.00
2018-09-04T03:21:58.880Z,15.00
2018-09-04T03:24:27.061Z,15.10
2018-09-04T03:26:55.259Z,15.10
2018-09-04T03:29:23.448Z,15.10
2018-09-04T03:31:51.638Z,15.20
2018-09-04T03:34:19.826Z,15.20
2018-09-04T03:36:47.992Z,15.20
2018-09-04T03:39:16.185Z,15.20
2018-09-04T03:41:44.336Z,15.10
2018-09-04T03:44:12.526Z,15.10
2018-09-04T03:46:40.680Z,15.10
2018-09-04T03:49:08.853Z,15.10
2018-09-04T03:51:37.053Z,15.10
2018-09-04T03:54:05.260Z,15.10
2018-09-04T03:56:33.438Z,15.10
2018-09-04T03:59:01.636Z,15.20
2018-09-04T04:01:29.837Z,15.10
2018-09-04T04:03:57.968Z,15.10
2018-09-04T04:06:26.136Z,15.10
2018-09-04T04:08:54.311Z,15.10
2018-09-04T04:11:22.477Z,15.10
2018-09-04T04:13:50.652Z,15.10
2018-09-04T04:16:18.832Z,15.10
2018-09-04T04:18:47.026Z,15.10
2018-09-04T04:21:15.187Z,15.10
2018-09-04T04:23:43.427Z,15.10
2018-09-04T04:26:11.572Z,15.10
2018-09-04T04:28:39.736Z,15.10
2018-09-04T04:31:07.896Z,15.10
2018-09-04T04:33:36.062Z,15.10
2018-09-04T04:36:04.226Z,15.10
2018-09-04T04:38:32.411Z,15.10
2018-09-04T04:41:00.584Z,15.00
2018-09-04T04:43:28.781Z,15.10
2018-09-04T04:45:56.934Z,15.00
2018-09-04T04:48:25.125Z,15.10
2018-09-04T04:50:53.334Z,15.10
2018-09-04T04:53:21.525Z,15.10
2018-09-04T04:55:49.680Z,15.20
2018-09-04T04:58:17.852Z,15.10
2018-09-04T05:00:46.026Z,15.10
2018-09-04T05:03:14.197Z,15.10
2018-09-04T05:05:42.404Z,15.10
2018-09-04T05:08:10.571Z,15.00
2018-09-04T05:10:38.749Z,15.00
2018-09-04T05:13:06.940Z,15.00
2018-09-04T05:15:35.117Z,15.00
2018-09-04T05:18:03.296Z,15.00
2018-09-04T05:20:31.469Z,15.00
2018-09-04T05:22:59.633Z,14.90
2018-09-04T05:25:27.816Z,14.90
2018-09-04T05:27:55.996Z,14.80
2018-09-04T05:30:24.205Z,14.70
2018-09-04T05:33:01.647Z,14.70
2018-09-04T05:35:35.040Z,14.70
2018-09-04T05:38:03.396Z,14.70
2018-09-04T05:40:31.568Z,14.70
2018-09-04T05:43:02.022Z,14.70
2018-09-04T05:45:31.413Z,14.70
2018-09-04T05:48:03.687Z,14.60
2018-09-04T05:50:31.980Z,14.60
2018-09-04T05:53:00.189Z,14.50
2018-09-04T05:55:28.375Z,14.50
2018-09-04T05:57:56.692Z,14.50
2018-09-04T06:00:27.428Z,14.50
2018-09-04T06:02:55.601Z,14.50
2018-09-04T06:05:23.968Z,14.50
2018-09-04T06:07:52.364Z,14.50
2018-09-04T06:10:20.529Z,14.50
2018-09-04T06:12:49.117Z,14.50
2018-09-04T06:15:17.551Z,14.50
2018-09-04T06:17:46.516Z,14.50
2018-09-04T06:20:14.716Z,14.50
2018-09-04T06:22:42.888Z,14.60
2018-09-04T06:25:11.065Z,14.50
2018-09-04T06:27:39.248Z,14.60
2018-09-04T06:30:07.779Z,14.50
2018-09-04T06:32:35.946Z,14.60
2018-09-04T06:35:04.204Z,14.60
2018-09-04T06:37:32.393Z,14.50
2018-09-04T06:40:00.573Z,14.50
2018-09-04T06:42:28.744Z,14.40
2018-09-04T06:44:56.919Z,14.40
2018-09-04T06:47:25.085Z,14.40
2018-09-04T06:49:53.252Z,14.40
2018-09-04T06:52:21.404Z,14.40
2018-09-04T06:54:49.595Z,14.40
2018-09-04T06:57:17.753Z,14.40
2018-09-04T06:59:45.905Z,14.40
2018-09-04T07:02:14.085Z,14.40
2018-09-04T07:04:42.240Z,14.40
2018-09-04T07:07:10.426Z,14.40
2018-09-04T07:09:38.742Z,14.50
2018-09-04T07:12:06.864Z,14.50
2018-09-04T07:14:35.037Z,14.50
2018-09-04T07:17:03.297Z,14.50
2018-09-04T07:19:31.507Z,14.50
2018-09-04T07:21:59.662Z,14.50
2018-09-04T07:24:27.880Z,14.50
2018-09-04T07:26:56.051Z,14.40
2018-09-04T07:29:24.256Z,14.50
2018-09-04T07:31:52.429Z,14.50
2018-09-04T07:34:20.596Z,14.50
2018-09-04T07:36:48.781Z,14.50
2018-09-04T07:39:16.954Z,14.50
2018-09-04T07:41:45.134Z,14.60
2018-09-04T07:44:13.348Z,14.60
2018-09-04T07:46:41.501Z,14.60
2018-09-04T07:49:09.647Z,14.70
2018-09-04T07:51:37.843Z,14.70
2018-09-04T07:54:06.000Z,14.80
2018-09-04T07:56:34.185Z,14.80
2018-09-04T07:59:02.349Z,14.90
2018-09-04T08:01:30.521Z,14.90
2018-09-04T08:03:58.684Z,14.90
2018-09-04T08:06:26.928Z,15.00
2018-09-04T08:08:55.137Z,15.00
2018-09-04T08:11:23.295Z,15.10
2018-09-04T08:13:51.470Z,15.10
2018-09-04T08:16:19.664Z,15.10
2018-09-04T08:18:47.801Z,15.20
2018-09-04T08:21:15.988Z,15.20
2018-09-04T08:23:44.165Z,15.30
2018-09-04T08:26:12.337Z,15.30
2018-09-04T08:28:40.502Z,15.40
2018-09-04T08:31:08.677Z,15.40
2018-09-04T08:33:36.861Z,15.40
2018-09-04T08:36:05.028Z,15.40
2018-09-04T08:38:37.463Z,15.40
2018-09-04T08:41:05.625Z,15.40
2018-09-04T08:43:33.792Z,15.40
2018-09-04T08:46:01.972Z,15.40
2018-09-04T08:48:30.145Z,15.40
2018-09-04T08:50:58.341Z,15.40
2018-09-04T08:53:26.564Z,15.40
2018-09-04T08:55:54.664Z,15.30
2018-09-04T08:58:22.860Z,15.30
2018-09-04T09:00:51.012Z,15.20
2018-09-04T09:03:19.180Z,15.20
2018-09-04T09:05:47.331Z,15.20
2018-09-04T09:08:15.473Z,15.20
2018-09-04T09:10:43.648Z,15.20
2018-09-04T09:13:11.848Z,15.30
2018-09-04T09:15:40.034Z,15.30
2018-09-04T09:18:08.236Z,15.30
2018-09-04T09:20:36.396Z,15.30
2018-09-04T09:23:04.575Z,15.30
2018-09-04T09:25:32.757Z,15.40
2018-09-04T09:28:01.185Z,15.40
2018-09-04T09:30:29.358Z,15.50
2018-09-04T09:32:57.531Z,15.40
2018-09-04T09:35:25.701Z,15.40
2018-09-04T09:37:53.896Z,15.50
2018-09-04T09:40:22.077Z,15.40
2018-09-04T09:42:50.262Z,15.40
2018-09-04T09:45:18.441Z,15.40
2018-09-04T09:47:49.568Z,15.40
2018-09-04T09:50:18.653Z,15.50
2018-09-04T09:52:47.021Z,15.50
2018-09-04T09:55:15.137Z,15.50
2018-09-04T09:57:43.337Z,15.50
2018-09-04T10:00:15.793Z,15.50
2018-09-04T10:02:50.588Z,15.50
2018-09-04T10:05:19.988Z,15.40
2018-09-04T10:07:48.209Z,15.40
2018-09-04T10:10:16.336Z,15.50
2018-09-04T10:12:44.508Z,15.40
2018-09-04T10:15:12.692Z,15.40
2018-09-04T10:17:40.870Z,15.40
2018-09-04T10:20:09.024Z,15.40
2018-09-04T10:22:37.214Z,15.40
2018-09-04T10:25:06.159Z,15.50
2018-09-04T10:27:34.330Z,15.50
2018-09-04T10:30:02.521Z,15.50
2018-09-04T10:32:30.712Z,15.50
2018-09-04T10:34:58.914Z,15.60
2018-09-04T10:37:27.086Z,15.60
2018-09-04T10:41:01.362Z,15.70
2018-09-04T10:43:30.593Z,15.70
2018-09-04T10:46:05.683Z,15.70
2018-09-04T10:48:33.948Z,15.80
2018-09-04T10:51:02.447Z,15.80
2018-09-04T10:53:30.937Z,15.80
2018-09-04T10:55:59.184Z,15.80
2018-09-04T10:58:28.134Z,15.80
2018-09-04T11:00:56.356Z,15.80
2018-09-04T11:03:24.577Z,15.80
2018-09-04T11:05:52.877Z,15.90
2018-09-04T11:08:21.044Z,15.90
2018-09-04T11:10:49.538Z,15.90
2018-09-04T11:13:17.700Z,15.90
2018-09-04T11:15:45.872Z,15.90
2018-09-04T11:18:14.018Z,15.90
2018-09-04T11:20:42.190Z,15.90
2018-09-04T11:23:10.389Z,15.90
2018-09-04T11:25:38.593Z,15.90
2018-09-04T11:28:07.009Z,16.00
2018-09-04T11:30:35.197Z,16.00
2018-09-04T11:33:03.508Z,16.00
2018-09-04T11:35:31.832Z,16.10
2018-09-04T11:38:00.041Z,16.10
2018-09-04T11:40:28.203Z,16.10
2018-09-04T11:42:56.501Z,16.00
2018-09-04T11:45:24.713Z,16.10
2018-09-04T11:47:52.953Z,16.10
2018-09-04T11:50:22.124Z,16.20
2018-09-04T11:52:50.680Z,16.20
2018-09-04T11:55:18.854Z,16.20
2018-09-04T11:57:47.028Z,16.30
2018-09-04T12:00:17.880Z,16.30
2018-09-04T12:02:46.309Z,16.30
2018-09-04T12:05:15.139Z,16.30
2018-09-04T12:07:43.313Z,16.30
2018-09-04T12:10:11.492Z,16.30
2018-09-04T12:12:39.748Z,16.40
2018-09-04T12:15:08.039Z,16.40
2018-09-04T12:17:36.222Z,16.50
2018-09-04T12:20:24.869Z,16.40
2018-09-04T12:22:53.636Z,16.40
2018-09-04T12:25:21.836Z,16.40
2018-09-04T12:27:50.264Z,16.40
2018-09-04T12:30:18.416Z,16.40
2018-09-04T12:32:46.597Z,16.40
2018-09-04T12:35:14.816Z,16.40
2018-09-04T12:37:43.696Z,16.40
2018-09-04T12:40:11.868Z,16.30
2018-09-04T12:42:40.053Z,16.40
2018-09-04T12:45:08.481Z,16.40
2018-09-04T12:47:36.636Z,16.40
2018-09-04T12:50:04.840Z,16.40
2018-09-04T12:52:33.018Z,16.40
2018-09-04T12:55:01.215Z,16.30
2018-09-04T12:57:30.661Z,16.30
2018-09-04T13:00:02.558Z,16.30
2018-09-04T13:02:30.760Z,16.30
2018-09-04T13:04:59.083Z,16.20
2018-09-04T13:07:27.235Z,16.20
2018-09-04T13:09:55.420Z,16.30
2018-09-04T13:12:23.676Z,16.30
2018-09-04T13:14:51.863Z,16.50
2018-09-04T13:17:20.084Z,16.50
2018-09-04T13:19:48.258Z,16.60
2018-09-04T13:24:59.172Z,16.80
2018-09-04T13:27:27.353Z,17.00
2018-09-04T13:29:55.588Z,17.10
2018-09-04T13:32:24.815Z,17.10
2018-09-04T13:34:52.989Z,17.30
2018-09-04T13:37:22.429Z,17.40
2018-09-04T13:39:55.227Z,17.50
2018-09-04T13:42:23.449Z,17.70
2018-09-04T13:44:54.153Z,17.80
2018-09-04T13:47:23.633Z,18.00
2018-09-04T13:49:51.895Z,18.20
2018-09-04T13:52:20.125Z,18.40
2018-09-04T13:54:48.986Z,18.50
2018-09-04T13:57:17.243Z,18.70
2018-09-04T13:59:45.631Z,18.90
2018-09-04T14:02:13.864Z,19.20
2018-09-04T14:04:42.296Z,19.30
2018-09-04T14:07:10.464Z,19.30
2018-09-04T14:09:38.750Z,19.40
2018-09-04T14:12:06.916Z,19.40
2018-09-04T14:14:35.497Z,19.40
2018-09-04T14:17:03.790Z,19.60
2018-09-04T14:19:31.963Z,19.70
2018-09-04T14:22:00.129Z,19.80
2018-09-04T14:24:28.345Z,19.80
2018-09-04T14:26:56.565Z,19.80
2018-09-04T14:29:53.967Z,19.70
2018-09-04T14:31:53.095Z,19.60
2018-09-04T14:34:21.304Z,19.50
2018-09-04T14:36:49.636Z,19.70
2018-09-04T14:39:17.669Z,19.90
2018-09-04T14:41:45.856Z,20.00
2018-09-04T14:44:14.060Z,20.20
2018-09-04T14:46:42.493Z,20.40
2018-09-04T14:49:10.689Z,20.50
2018-09-04T14:51:40.758Z,20.50
2018-09-04T14:54:09.273Z,20.50
2018-09-04T14:56:37.546Z,20.60
2018-09-04T14:59:05.738Z,20.60
2018-09-04T15:01:33.988Z,20.60
2018-09-04T15:04:02.124Z,20.40
2018-09-04T15:06:30.357Z,20.20
2018-09-04T15:08:58.506Z,20.10
2018-09-04T15:11:26.698Z,20.30
2018-09-04T15:13:54.904Z,20.30
2018-09-04T15:16:23.167Z,20.20
2018-09-04T15:18:51.416Z,20.10
2018-09-04T15:21:19.996Z,20.00
2018-09-04T15:23:48.257Z,19.80
2018-09-04T15:26:16.428Z,19.60
2018-09-04T15:28:44.624Z,19.40
2018-09-04T15:31:12.856Z,19.20
2018-09-04T15:33:41.084Z,19.10
2018-09-04T15:36:11.805Z,19.10
2018-09-04T15:38:41.166Z,19.10
2018-09-04T15:41:09.332Z,19.10
2018-09-04T15:43:37.506Z,19.00
2018-09-04T15:46:05.985Z,18.90
2018-09-04T15:48:34.183Z,18.70
2018-09-04T15:51:02.360Z,18.70
2018-09-04T15:53:31.121Z,18.60
2018-09-04T15:56:00.161Z,18.60
2018-09-04T15:58:28.323Z,18.60
2018-09-04T16:00:56.512Z,18.60
2018-09-04T16:03:24.686Z,18.70
2018-09-04T16:05:52.960Z,18.70
2018-09-04T16:08:22.067Z,18.70
2018-09-04T16:10:50.257Z,18.70
2018-09-04T16:13:18.432Z,18.60
2018-09-04T16:15:46.618Z,18.60
2018-09-04T16:18:14.786Z,18.50
2018-09-04T16:20:43.101Z,18.50
2018-09-04T16:23:11.316Z,18.60
2018-09-04T16:25:39.514Z,18.60
2018-09-04T16:28:07.806Z,18.60
2018-09-04T16:30:36.839Z,18.70
2018-09-04T16:33:06.475Z,18.70
2018-09-04T16:35:35.666Z,18.70
2018-09-04T16:38:04.732Z,18.70
2018-09-04T16:40:32.945Z,18.60
2018-09-04T16:43:01.128Z,18.60
2018-09-04T16:45:29.745Z,18.60
2018-09-04T16:47:58.229Z,18.60
2018-09-04T16:50:26.509Z,18.50
2018-09-04T16:52:54.707Z,18.40
2018-09-04T16:55:22.947Z,18.40
2018-09-04T16:57:51.237Z,18.40
2018-09-04T17:00:19.434Z,18.40
2018-09-04T17:02:47.629Z,18.30
2018-09-04T17:05:16.125Z,18.20
2018-09-04T17:07:44.340Z,18.10
2018-09-04T17:10:12.561Z,18.10
2018-09-04T17:12:40.757Z,18.00
2018-09-04T17:15:08.943Z,17.90
2018-09-04T17:17:37.113Z,17.80
2018-09-04T17:20:05.561Z,17.70
2018-09-04T17:22:33.793Z,17.60
2018-09-04T17:25:01.989Z,17.50
2018-09-04T17:27:30.156Z,17.50
2018-09-04T17:29:58.349Z,17.40
2018-09-04T17:32:26.548Z,17.30
2018-09-04T17:34:54.872Z,17.30
2018-09-04T17:37:23.252Z,17.20
2018-09-04T17:39:51.476Z,17.20
2018-09-04T17:42:19.689Z,17.10
2018-09-04T17:44:48.029Z,17.10
2018-09-04T17:47:16.226Z,17.00
2018-09-04T17:49:45.368Z,16.90
2018-09-04T17:52:13.709Z,16.90
2018-09-04T17:54:45.130Z,16.80
2018-09-04T17:57:13.288Z,16.80
2018-09-04T17:59:41.585Z,16.70
2018-09-04T18:02:09.794Z,16.70
2018-09-04T18:04:38.032Z,16.60
2018-09-04T18:07:06.225Z,16.60
2018-09-04T18:09:34.465Z,16.50
2018-09-04T18:12:02.724Z,16.50
2018-09-04T18:14:30.866Z,16.40
2018-09-04T18:16:59.057Z,16.40
2018-09-04T18:19:27.230Z,16.40
2018-09-04T18:21:55.469Z,16.40
2018-09-04T18:24:23.668Z,16.30
2018-09-04T18:26:51.856Z,16.20
2018-09-04T18:29:20.160Z,16.20
2018-09-04T18:31:48.351Z,16.20
2018-09-04T18:34:16.550Z,16.20
2018-09-04T18:36:44.733Z,16.20
2018-09-04T18:39:12.926Z,16.10
2018-09-04T18:41:41.122Z,16.10
2018-09-04T18:44:09.292Z,16.00
2018-09-04T18:46:40.958Z,16.00
2018-09-04T18:49:09.185Z,15.90
2018-09-04T18:51:37.378Z,15.90
2018-09-04T18:54:05.613Z,15.90
2018-09-04T18:56:33.804Z,15.90
2018-09-04T18:59:02.006Z,15.90
2018-09-04T19:01:30.229Z,15.80
2018-09-04T19:03:58.414Z,15.80
2018-09-04T19:06:26.605Z,15.80
2018-09-04T19:08:54.780Z,15.80
2018-09-04T19:11:22.987Z,15.80
2018-09-04T19:13:51.157Z,15.80
2018-09-04T19:16:19.350Z,15.70
2018-09-04T19:18:47.533Z,15.80
2018-09-04T19:21:15.696Z,15.80
2018-09-04T19:23:44.095Z,15.80
2018-09-04T19:26:12.767Z,15.80
2018-09-04T19:28:41.105Z,15.80
2018-09-04T19:31:09.281Z,15.70
2018-09-04T19:33:37.455Z,15.70
2018-09-04T19:36:05.656Z,15.60
2018-09-04T19:38:33.868Z,15.60
2018-09-04T19:41:02.034Z,15.50
2018-09-04T19:43:30.242Z,15.40
2018-09-04T19:45:58.432Z,15.30
2018-09-04T19:48:26.676Z,15.30
2018-09-04T19:50:54.882Z,15.20
2018-09-04T19:53:23.109Z,15.20
2018-09-04T19:55:51.315Z,15.10
2018-09-04T19:58:19.549Z,15.10
2018-09-04T20:00:47.786Z,15.00
2018-09-04T20:03:15.928Z,15.00
2018-09-04T20:05:44.116Z,15.00
2018-09-04T20:08:12.326Z,15.00
2018-09-04T20:10:40.534Z,14.90
2018-09-04T20:13:08.819Z,14.90
2018-09-04T20:15:37.132Z,14.90
2018-09-04T20:18:05.753Z,14.80
2018-09-04T20:20:33.956Z,14.80
2018-09-04T20:23:02.142Z,14.80
2018-09-04T20:25:30.321Z,14.80
2018-09-04T20:27:58.501Z,14.70
2018-09-04T20:30:26.696Z,14.70
2018-09-04T20:32:54.876Z,14.70
2018-09-04T20:35:23.082Z,14.70
2018-09-04T20:37:51.253Z,14.70
2018-09-04T20:40:19.449Z,14.70
2018-09-04T20:42:47.670Z,14.60
2018-09-04T20:45:15.877Z,14.60
2018-09-04T20:47:44.047Z,14.60
2018-09-04T20:50:12.241Z,14.60
2018-09-04T20:52:40.420Z,14.50
2018-09-04T20:55:08.616Z,14.50
2018-09-04T20:57:39.340Z,14.50
2018-09-04T21:00:20.825Z,14.50
2018-09-04T21:03:00.561Z,14.50
2018-09-04T21:05:40.191Z,14.50
2018-09-04T21:08:16.541Z,14.50
2018-09-04T21:10:45.170Z,14.50
2018-09-04T21:13:14.031Z,14.50
2018-09-04T21:15:43.132Z,14.50
2018-09-04T21:18:11.368Z,14.50
2018-09-04T21:20:39.586Z,14.50
2018-09-04T21:23:07.791Z,14.50
2018-09-04T21:25:35.977Z,14.50
2018-09-04T21:28:04.169Z,14.50
2018-09-04T21:30:32.352Z,14.50
2018-09-04T21:33:00.540Z,14.50
2018-09-04T21:35:28.779Z,14.50
2018-09-04T21:37:57.609Z,14.40
2018-09-04T21:40:25.809Z,14.40
2018-09-04T21:42:54.016Z,14.40
2018-09-04T21:45:22.218Z,14.40
2018-09-04T21:47:50.448Z,14.40
2018-09-04T21:50:18.585Z,14.40
2018-09-04T21:52:46.791Z,14.40
2018-09-04T21:55:15.005Z,14.40
2018-09-04T21:57:43.216Z,14.40
2018-09-04T22:00:11.442Z,14.40
2018-09-04T22:02:39.668Z,14.50
2018-09-04T22:05:07.929Z,14.50
2018-09-04T22:07:36.140Z,14.50
2018-09-04T22:10:04.332Z,14.50
2018-09-04T22:12:32.536Z,14.40
2018-09-04T22:15:00.765Z,14.40
2018-09-04T22:17:28.962Z,14.40
2018-09-04T22:19:57.192Z,14.40
2018-09-04T22:22:25.411Z,14.40
2018-09-04T22:24:53.601Z,14.30
2018-09-04T22:27:21.807Z,14.30
2018-09-04T22:29:50.021Z,14.30
2018-09-04T22:32:18.201Z,14.30
2018-09-04T22:34:46.420Z,14.40
2018-09-04T22:37:14.603Z,14.40
2018-09-04T22:39:42.829Z,14.40
2018-09-04T22:42:11.068Z,14.30
2018-09-04T22:44:39.326Z,14.30
2018-09-04T22:47:07.529Z,14.40
2018-09-04T22:49:35.788Z,14.40
2018-09-04T22:52:03.992Z,14.40
2018-09-04T22:54:32.178Z,14.30
2018-09-04T22:57:01.010Z,14.30
2018-09-04T22:59:29.207Z,14.30
2018-09-04T23:01:57.401Z,14.30
2018-09-04T23:04:25.590Z,14.30
2018-09-04T23:06:53.783Z,14.20
2018-09-04T23:09:22.019Z,14.20
2018-09-04T23:11:50.246Z,14.30
2018-09-04T23:14:18.444Z,14.20
2018-09-04T23:16:46.618Z,14.30
2018-09-04T23:19:14.817Z,14.30
2018-09-04T23:21:43.005Z,14.30
2018-09-04T23:24:11.214Z,14.30
2018-09-04T23:26:39.429Z,14.30
2018-09-04T23:29:07.622Z,14.30
2018-09-04T23:31:35.821Z,14.30
2018-09-04T23:34:03.997Z,14.30
2018-09-04T23:36:32.197Z,14.30
2018-09-04T23:39:00.391Z,14.30
2018-09-04T23:41:28.567Z,14.30
2018-09-04T23:43:56.762Z,14.30
2018-09-04T23:46:24.950Z,14.30
2018-09-04T23:48:53.143Z,14.20
2018-09-04T23:51:21.340Z,14.20
2018-09-04T23:53:49.521Z,14.30
2018-09-04T23:56:17.735Z,14.30
2018-09-04T23:58:45.942Z,14.30
